Time;durP1;ratioP1;P1;durP2;ratioP2;P2;SDS_P1;SDS_P2;PMS_P1;PMS_P2;Temp;Humidity;BMP_temperature;BMP_pressure;BME280_temperature;BME280_humidity;BME280_pressure;Samples;Min_cycle;Max_cycle;Signal;HPM_P1;HPM_P2
2022/03/12 00:02:50;;;;;;;4.53;3.20;;;13.40;71.30;;;;;;2009242;71;21031;-89
2022/03/12 00:05:52;;;;;;;6.12;3.70;;;13.50;70.40;;;;;;1991722;71;21081;-88
2022/03/12 00:08:45;;;;;;;5.58;3.55;;;13.50;69.70;;;;;;2000075;71;21781;-90
2022/03/12 00:11:45;;;;;;;4.25;3.05;;;13.50;68.10;;;;;;2020642;71;21097;-88
2022/03/12 00:14:35;;;;;;;4.03;2.92;;;13.60;67.70;;;;;;1982347;71;21185;-88
2022/03/12 00:17:33;;;;;;;4.10;2.90;;;13.50;67.10;;;;;;2000612;71;21035;-88
2022/03/12 00:20:29;;;;;;;5.37;2.90;;;13.60;66.60;;;;;;2005146;71;21603;-88
2022/03/12 00:23:22;;;;;;;3.92;2.70;;;13.60;66.10;;;;;;2008537;71;21130;-89
2022/03/12 00:26:17;;;;;;;7.80;4.72;;;13.60;66.20;;;;;;2001539;71;21058;-89
2022/03/12 00:29:14;;;;;;;7.45;4.80;;;13.50;69.50;;;;;;1996008;71;21489;-89
2022/03/12 00:32:07;;;;;;;8.33;4.97;;;13.30;71.00;;;;;;1993081;71;21075;-89
2022/03/12 00:35:05;;;;;;;7.65;5.22;;;13.20;72.70;;;;;;1993621;71;21113;-88
2022/03/12 00:37:57;;;;;;;8.63;4.78;;;13.10;74.70;;;;;;2007219;71;21097;-88
2022/03/12 00:40:51;;;;;;;9.95;5.47;;;12.90;75.60;;;;;;1996957;71;21029;-89
2022/03/12 00:43:46;;;;;;;10.60;6.03;;;12.80;76.90;;;;;;1988093;72;21148;-88
2022/03/12 00:46:37;;;;;;;9.80;6.33;;;12.70;80.20;;;;;;1992778;70;21199;-88
2022/03/12 00:49:33;;;;;;;10.72;5.65;;;12.60;81.90;;;;;;2007022;71;21071;-88
2022/03/12 00:52:26;;;;;;;9.58;5.53;;;12.40;84.30;;;;;;2002705;71;21030;-88
2022/03/12 00:55:19;;;;;;;7.55;5.20;;;12.20;84.00;;;;;;1988135;72;21039;-88
2022/03/12 00:58:13;;;;;;;7.87;5.10;;;12.20;84.30;;;;;;2015115;71;21098;-88
2022/03/12 01:01:07;;;;;;;8.23;5.08;;;12.10;86.70;;;;;;2024508;71;21133;-89
2022/03/12 01:03:59;;;;;;;7.37;4.70;;;12.00;86.80;;;;;;1956732;72;21486;-89
2022/03/12 01:06:55;;;;;;;12.45;5.40;;;12.00;87.00;;;;;;2012553;71;21046;-88
2022/03/12 01:09:48;;;;;;;8.13;4.50;;;12.00;86.50;;;;;;2017891;71;21027;-88
2022/03/12 01:12:43;;;;;;;8.25;5.05;;;12.10;85.80;;;;;;2012413;71;21551;-88
2022/03/12 01:15:37;;;;;;;6.65;4.67;;;12.20;86.00;;;;;;1998136;71;21070;-88
2022/03/12 01:18:31;;;;;;;5.80;3.95;;;12.20;86.00;;;;;;1982742;70;21079;-88
2022/03/12 01:21:33;;;;;;;7.78;3.87;;;12.30;85.80;;;;;;2004531;71;21463;-88
2022/03/12 01:24:25;;;;;;;8.65;4.22;;;12.30;83.30;;;;;;2011944;71;21550;-89
2022/03/12 01:27:20;;;;;;;6.58;3.75;;;12.30;85.50;;;;;;2012284;71;21068;-88
2022/03/12 01:30:16;;;;;;;6.70;3.42;;;12.20;85.40;;;;;;1996473;71;21185;-88
2022/03/12 01:33:10;;;;;;;3.90;2.30;;;12.20;84.20;;;;;;1991720;71;21059;-88
2022/03/12 01:36:04;;;;;;;3.35;1.90;;;12.40;79.80;;;;;;1989093;71;21096;-88
2022/03/12 01:39:01;;;;;;;5.83;2.75;;;12.80;74.50;;;;;;1999574;71;21027;-89
2022/03/12 01:41:55;;;;;;;3.95;2.80;;;13.00;77.30;;;;;;2005707;71;21093;-89
2022/03/12 01:44:51;;;;;;;6.00;2.62;;;12.90;78.00;;;;;;1992942;71;21151;-89
2022/03/12 01:47:44;;;;;;;3.65;2.60;;;12.80;78.60;;;;;;1994941;71;21157;-89
2022/03/12 01:50:38;;;;;;;3.12;2.10;;;12.80;79.10;;;;;;2008745;71;21121;-88
2022/03/12 01:53:31;;;;;;;4.70;2.58;;;12.90;76.10;;;;;;1989884;71;21152;-88
2022/03/12 01:56:27;;;;;;;2.95;1.80;;;13.00;76.90;;;;;;1995987;71;21139;-88
2022/03/12 02:02:02;;;;;;;3.58;1.95;;;13.00;75.90;;;;;;1943563;72;22233;-87
2022/03/12 02:05:14;;;;;;;4.17;2.85;;;13.00;76.20;;;;;;1908115;74;21598;-89
2022/03/12 02:08:08;;;;;;;5.12;3.27;;;13.00;76.40;;;;;;1870295;76;21170;-88
2022/03/12 02:10:59;;;;;;;4.37;3.02;;;12.90;76.90;;;;;;1891101;75;21524;-88
2022/03/12 02:13:51;;;;;;;4.83;3.10;;;12.90;77.40;;;;;;1898382;75;21064;-89
2022/03/12 02:16:45;;;;;;;5.10;3.02;;;12.80;77.90;;;;;;1886476;75;21172;-89
2022/03/12 02:19:39;;;;;;;5.00;2.80;;;12.80;78.10;;;;;;1901552;75;21157;-90
2022/03/12 02:22:31;;;;;;;5.05;2.70;;;12.70;78.20;;;;;;1911890;75;21605;-89
2022/03/12 02:25:29;;;;;;;5.72;3.90;;;12.80;78.40;;;;;;1910692;75;21097;-88
2022/03/12 02:28:27;;;;;;;6.12;3.55;;;12.70;79.10;;;;;;1892860;75;21501;-89
2022/03/12 02:31:19;;;;;;;6.15;4.05;;;12.50;82.30;;;;;;1885193;75;21046;-89
2022/03/12 02:34:12;;;;;;;5.65;3.45;;;12.10;85.20;;;;;;1871315;77;21615;-89
2022/03/12 02:37:04;;;;;;;4.62;3.70;;;11.90;86.30;;;;;;1905846;75;21067;-89
2022/03/12 02:39:56;;;;;;;5.95;3.85;;;11.90;86.80;;;;;;1905693;75;21150;-89
2022/03/12 02:42:49;;;;;;;8.18;4.00;;;11.80;88.00;;;;;;1891748;75;21078;-89
2022/03/12 02:45:42;;;;;;;6.05;3.67;;;11.70;88.90;;;;;;1875561;76;21067;-89
2022/03/12 02:48:35;;;;;;;6.92;4.12;;;11.50;90.50;;;;;;1911874;75;21129;-89
2022/03/12 02:51:26;;;;;;;9.18;4.05;;;11.40;90.70;;;;;;1867317;77;21055;-89
2022/03/12 02:57:00;;;;;;;7.65;4.00;;;11.30;91.30;;;;;;1956781;72;22596;-90
2022/03/12 03:00:12;;;;;;;8.08;3.55;;;11.30;91.60;;;;;;1896111;74;21131;-89
2022/03/12 03:03:06;;;;;;;5.03;3.30;;;11.20;92.10;;;;;;1892110;75;21108;-89
2022/03/12 03:05:58;;;;;;;5.95;3.37;;;11.20;92.30;;;;;;1884840;76;21125;-89
2022/03/12 03:08:50;;;;;;;4.42;2.90;;;11.20;92.70;;;;;;1900948;75;21122;-88
2022/03/12 03:11:44;;;;;;;8.55;3.58;;;11.20;92.70;;;;;;1885018;75;21063;-89
2022/03/12 03:14:37;;;;;;;4.67;3.30;;;11.20;92.70;;;;;;1891530;75;21043;-90
2022/03/12 03:17:29;;;;;;;5.65;3.33;;;11.20;93.00;;;;;;1895794;75;21091;-89
2022/03/12 03:20:20;;;;;;;5.17;3.20;;;11.20;93.40;;;;;;1899146;75;21088;-90
2022/03/12 03:23:13;;;;;;;5.42;3.15;;;11.20;93.40;;;;;;1898171;75;21063;-89
2022/03/12 03:28:51;;;;;;;6.95;4.00;;;11.20;94.10;;;;;;1935490;72;27956;-88
2022/03/12 03:32:02;;;;;;;4.37;3.22;;;11.30;94.30;;;;;;1885742;75;21091;-89
2022/03/12 03:34:53;;;;;;;4.00;3.25;;;11.20;94.50;;;;;;1900311;75;21125;-89
2022/03/12 03:37:45;;;;;;;6.05;3.58;;;11.20;94.90;;;;;;1885022;75;21064;-88
2022/03/12 03:40:37;;;;;;;6.35;3.40;;;11.10;95.10;;;;;;1891572;75;21051;-88
2022/03/12 03:43:28;;;;;;;6.33;3.42;;;11.00;95.50;;;;;;1895545;75;21154;-89
2022/03/12 03:46:22;;;;;;;5.08;3.25;;;11.00;95.60;;;;;;1899517;75;21129;-89
2022/03/12 03:49:14;;;;;;;4.12;3.20;;;10.90;96.10;;;;;;1898365;75;21064;-90
2022/03/12 03:52:08;;;;;;;7.30;3.40;;;10.90;96.40;;;;;;1895581;75;21117;-89
2022/03/12 03:55:00;;;;;;;7.37;3.70;;;10.90;96.80;;;;;;1895495;75;21100;-89
2022/03/12 03:57:52;;;;;;;5.75;3.45;;;10.90;97.30;;;;;;1897337;75;21148;-88
2022/03/12 04:00:48;;;;;;;5.70;3.25;;;10.80;97.70;;;;;;1884840;76;21138;-91
2022/03/12 04:03:48;;;;;;;6.92;3.40;;;10.70;98.10;;;;;;1895524;75;21055;-89
2022/03/12 04:06:38;;;;;;;5.28;3.02;;;10.80;98.40;;;;;;1895797;75;21086;-88
2022/03/12 04:09:30;;;;;;;4.72;3.25;;;10.70;98.80;;;;;;1895627;75;21128;-88
2022/03/12 04:12:23;;;;;;;5.03;3.05;;;10.70;99.00;;;;;;1898612;75;21142;-88
2022/03/12 04:15:17;;;;;;;4.42;2.85;;;10.70;99.30;;;;;;1899756;75;21119;-88
2022/03/12 04:18:09;;;;;;;6.15;3.25;;;10.70;99.70;;;;;;1908038;75;21113;-88
2022/03/12 04:21:00;;;;;;;4.78;3.17;;;10.70;99.50;;;;;;1911209;75;21050;-88
2022/03/12 04:23:52;;;;;;;6.10;3.60;;;10.80;99.60;;;;;;1896726;75;21063;-88
2022/03/12 04:26:44;;;;;;;4.08;2.83;;;10.80;99.70;;;;;;1900386;75;21046;-88
2022/03/12 04:29:36;;;;;;;5.10;3.12;;;10.80;99.60;;;;;;1916465;74;21227;-89
2022/03/12 04:32:27;;;;;;;5.47;3.30;;;10.80;99.80;;;;;;1895877;75;21187;-89
2022/03/12 04:35:19;;;;;;;4.25;2.70;;;10.90;99.90;;;;;;1894380;76;21110;-89
2022/03/12 04:38:11;;;;;;;4.87;2.55;;;10.90;99.80;;;;;;1904351;75;21051;-88
2022/03/12 04:41:03;;;;;;;4.67;3.02;;;11.00;99.90;;;;;;1906679;74;21050;-88
2022/03/12 04:43:54;;;;;;;4.25;2.45;;;10.90;99.90;;;;;;1904622;74;21139;-88
2022/03/12 04:46:45;;;;;;;4.65;2.80;;;10.90;99.90;;;;;;1904283;74;21432;-88
2022/03/12 04:49:37;;;;;;;4.90;2.80;;;10.90;99.80;;;;;;1907578;74;21047;-88
2022/03/12 04:52:29;;;;;;;4.45;2.85;;;11.00;99.80;;;;;;1908113;74;21078;-88
2022/03/12 04:55:23;;;;;;;4.35;2.60;;;11.00;99.80;;;;;;1895496;74;21117;-88
2022/03/12 04:58:15;;;;;;;4.05;2.60;;;11.00;99.80;;;;;;1920122;74;21127;-88
2022/03/12 05:01:07;;;;;;;5.47;2.83;;;11.00;99.90;;;;;;1926553;74;21589;-88
2022/03/12 05:03:59;;;;;;;5.72;3.40;;;11.00;99.90;;;;;;1909390;74;21117;-88
2022/03/12 05:07:13;;;;;;;5.60;3.00;;;10.90;99.90;;;;;;1915966;74;21060;-88
2022/03/12 05:10:07;;;;;;;4.83;3.00;;;10.90;99.90;;;;;;1903736;74;21042;-88
2022/03/12 05:13:00;;;;;;;4.10;2.67;;;10.90;99.90;;;;;;1904647;74;21098;-88
2022/03/12 05:15:53;;;;;;;3.42;2.75;;;10.80;99.90;;;;;;1904644;74;21163;-89
2022/03/12 05:18:45;;;;;;;4.87;2.95;;;10.80;99.90;;;;;;1926572;74;21534;-88
2022/03/12 05:21:36;;;;;;;4.25;2.90;;;10.80;99.90;;;;;;1906420;74;21055;-88
2022/03/12 05:24:28;;;;;;;4.50;2.55;;;10.80;99.90;;;;;;1897506;74;21207;-88
2022/03/12 05:27:20;;;;;;;4.28;2.72;;;10.70;99.90;;;;;;1917743;74;21146;-88
2022/03/12 05:30:13;;;;;;;3.33;2.40;;;10.70;99.90;;;;;;1890866;74;21083;-88
2022/03/12 05:33:11;;;;;;;3.37;2.17;;;10.70;99.90;;;;;;1884131;76;21529;-88
2022/03/12 05:36:05;;;;;;;4.20;2.27;;;10.70;99.90;;;;;;1910539;75;21050;-89
2022/03/12 05:39:01;;;;;;;4.10;2.10;;;10.70;99.90;;;;;;1886702;75;21120;-88
2022/03/12 05:41:55;;;;;;;4.95;2.50;;;10.70;99.90;;;;;;1884377;76;21099;-88
2022/03/12 05:44:47;;;;;;;3.37;2.00;;;10.70;99.90;;;;;;1902931;75;21043;-88
2022/03/12 05:47:41;;;;;;;2.75;1.98;;;10.60;99.90;;;;;;1885952;75;21048;-88
2022/03/12 05:50:38;;;;;;;4.17;2.05;;;10.60;99.90;;;;;;1882910;75;21056;-88
2022/03/12 05:53:32;;;;;;;2.62;2.00;;;10.60;99.90;;;;;;1911949;75;21618;-88
2022/03/12 05:56:25;;;;;;;3.60;1.70;;;10.60;99.90;;;;;;1873140;75;21056;-89
2022/03/12 05:59:18;;;;;;;2.25;1.82;;;10.60;99.90;;;;;;1887429;75;21064;-88
2022/03/12 06:02:13;;;;;;;2.92;1.70;;;10.60;99.90;;;;;;1884924;75;21184;-89
2022/03/12 06:05:11;;;;;;;3.45;1.95;;;10.60;99.90;;;;;;1882861;75;21048;-88
2022/03/12 06:08:04;;;;;;;2.80;1.80;;;10.50;99.90;;;;;;1883279;75;21059;-89
2022/03/12 06:11:00;;;;;;;2.85;2.15;;;10.50;99.90;;;;;;1870722;76;21063;-89
2022/03/12 06:14:00;;;;;;;3.72;2.20;;;10.50;99.90;;;;;;1902121;75;21132;-88
2022/03/12 06:17:04;;;;;;;3.30;1.90;;;10.40;99.90;;;;;;1884289;76;21059;-88
2022/03/12 06:20:00;;;;;;;2.55;2.02;;;10.40;99.90;;;;;;1883548;75;21047;-88
2022/03/12 06:22:57;;;;;;;2.72;2.00;;;10.40;99.90;;;;;;1904830;75;21125;-89
2022/03/12 06:25:52;;;;;;;3.33;2.30;;;10.30;99.90;;;;;;1883627;75;21180;-87
2022/03/12 06:28:45;;;;;;;3.30;1.90;;;10.30;99.90;;;;;;1899645;75;21115;-88
2022/03/12 06:31:42;;;;;;;3.37;2.20;;;10.30;99.90;;;;;;1884265;76;21083;-88
2022/03/12 06:34:38;;;;;;;4.75;2.00;;;10.30;99.90;;;;;;1895904;75;21083;-89
2022/03/12 06:37:33;;;;;;;2.70;2.02;;;10.40;99.90;;;;;;1894151;75;21117;-89
2022/03/12 06:40:31;;;;;;;3.27;2.05;;;10.40;99.90;;;;;;1883178;75;21099;-88
2022/03/12 06:43:28;;;;;;;3.52;2.20;;;10.30;99.90;;;;;;1894808;75;21067;-88
2022/03/12 06:46:25;;;;;;;4.70;1.90;;;10.40;99.90;;;;;;1886832;75;21110;-88
2022/03/12 06:49:19;;;;;;;3.37;1.93;;;10.40;99.90;;;;;;1898763;75;21090;-88
2022/03/12 06:52:11;;;;;;;2.60;2.00;;;10.50;99.90;;;;;;1873518;75;21243;-88
2022/03/12 06:55:09;;;;;;;2.45;2.00;;;10.50;99.90;;;;;;1906281;75;21094;-88
2022/03/12 06:58:01;;;;;;;5.10;1.90;;;10.50;99.90;;;;;;1894286;75;21165;-89
2022/03/12 07:00:55;;;;;;;4.22;1.80;;;10.50;99.90;;;;;;1889778;75;21051;-89
2022/03/12 07:03:52;;;;;;;2.80;2.00;;;10.40;99.90;;;;;;1903914;75;21175;-88
2022/03/12 07:06:48;;;;;;;3.40;2.00;;;10.40;99.90;;;;;;1893752;75;21132;-88
2022/03/12 07:09:41;;;;;;;3.33;1.87;;;10.40;99.90;;;;;;1894973;75;21082;-88
2022/03/12 07:12:33;;;;;;;2.58;1.95;;;10.40;99.90;;;;;;1895014;75;21118;-89
2022/03/12 07:15:29;;;;;;;2.35;2.00;;;10.50;99.90;;;;;;1899355;75;21067;-89
2022/03/12 07:18:22;;;;;;;3.42;2.08;;;10.50;99.90;;;;;;1896945;75;21132;-90
2022/03/12 07:21:14;;;;;;;3.02;2.40;;;10.60;99.90;;;;;;1894781;75;21116;-78
2022/03/12 07:24:06;;;;;;;3.75;1.98;;;10.60;99.90;;;;;;1894807;75;21140;-78
2022/03/12 07:26:58;;;;;;;2.12;1.70;;;10.70;99.90;;;;;;1897447;75;21153;-78
2022/03/12 07:29:49;;;;;;;2.58;1.65;;;10.70;99.90;;;;;;1898653;75;21098;-78
2022/03/12 07:32:42;;;;;;;2.80;2.10;;;10.80;99.90;;;;;;1858316;76;21235;-79
2022/03/12 07:35:34;;;;;;;4.20;2.30;;;10.80;99.90;;;;;;1854239;76;21202;-78
2022/03/12 07:38:25;;;;;;;2.83;2.45;;;10.90;99.90;;;;;;1868269;76;21160;-80
2022/03/12 07:41:16;;;;;;;4.58;2.27;;;10.90;99.90;;;;;;1863301;76;21079;-78
2022/03/12 07:44:09;;;;;;;3.40;2.30;;;10.90;99.90;;;;;;1858079;76;21102;-78
2022/03/12 07:47:00;;;;;;;3.80;2.12;;;11.00;99.90;;;;;;1874535;76;21596;-77
2022/03/12 07:49:51;;;;;;;3.40;2.60;;;11.00;99.90;;;;;;1869339;76;21160;-78
2022/03/12 07:52:44;;;;;;;4.15;2.25;;;11.10;99.90;;;;;;1865348;75;21611;-78
2022/03/12 07:55:36;;;;;;;4.22;2.37;;;11.10;99.90;;;;;;1858012;75;21123;-78
2022/03/12 07:58:28;;;;;;;4.92;2.30;;;11.00;99.90;;;;;;1869264;76;21111;-78
2022/03/12 08:01:21;;;;;;;5.22;2.47;;;11.00;99.90;;;;;;1870654;76;21533;-77
2022/03/12 08:04:13;;;;;;;3.42;2.22;;;11.00;99.90;;;;;;1862011;76;21116;-78
2022/03/12 08:07:06;;;;;;;2.85;2.27;;;11.00;99.90;;;;;;1860771;76;21097;-77
2022/03/12 08:09:59;;;;;;;3.72;2.40;;;11.00;99.90;;;;;;1849967;76;21144;-78
2022/03/12 08:12:51;;;;;;;8.38;3.37;;;10.90;99.90;;;;;;1869141;76;21196;-77
2022/03/12 08:15:43;;;;;;;7.10;2.50;;;10.90;99.90;;;;;;1867974;76;21090;-77
2022/03/12 08:18:35;;;;;;;3.83;2.95;;;10.90;99.90;;;;;;1865926;76;21529;-80
2022/03/12 08:21:27;;;;;;;3.52;2.22;;;11.00;99.90;;;;;;1853961;76;21104;-78
2022/03/12 08:26:59;;;;;;;3.62;2.12;;;11.00;99.90;;;;;;1955645;72;22820;-80
2022/03/12 08:30:14;;;;;;;3.75;2.40;;;11.00;99.90;;;;;;1917642;75;21140;-78
2022/03/12 08:33:06;;;;;;;3.40;2.17;;;11.00;99.90;;;;;;1917352;74;21135;-78
2022/03/12 08:35:58;;;;;;;5.22;2.77;;;11.00;99.90;;;;;;1917782;73;21597;-77
2022/03/12 08:38:49;;;;;;;3.83;2.60;;;11.00;99.90;;;;;;1922325;73;21243;-77
2022/03/12 08:41:41;;;;;;;5.42;2.27;;;11.10;99.90;;;;;;1929314;73;21103;-78
2022/03/12 08:44:33;;;;;;;3.60;2.15;;;11.10;99.90;;;;;;1917721;74;21102;-77
2022/03/12 08:47:25;;;;;;;3.20;2.12;;;11.10;99.90;;;;;;1939753;73;21062;-78
2022/03/12 08:50:16;;;;;;;4.87;2.27;;;11.00;99.90;;;;;;1917487;75;21157;-77
2022/03/12 08:53:16;;;;;;;3.12;1.98;;;11.00;99.90;;;;;;1917575;75;21051;-77
2022/03/12 08:56:08;;;;;;;3.25;2.30;;;11.10;99.90;;;;;;1917670;73;21594;-78
2022/03/12 08:59:03;;;;;;;4.00;2.60;;;11.10;99.90;;;;;;1932665;73;21043;-78
2022/03/12 09:01:56;;;;;;;3.25;2.25;;;11.10;99.90;;;;;;1917885;73;21155;-78
2022/03/12 09:04:47;;;;;;;3.45;2.22;;;11.20;99.90;;;;;;1917202;75;21058;-77
2022/03/12 09:07:38;;;;;;;3.58;2.08;;;11.20;99.90;;;;;;1920758;73;21159;-77
2022/03/12 09:10:32;;;;;;;2.67;2.20;;;11.20;99.90;;;;;;1929480;73;21035;-77
2022/03/12 09:13:24;;;;;;;2.98;2.47;;;11.20;99.90;;;;;;1918194;73;21115;-77
2022/03/12 09:16:16;;;;;;;5.12;2.52;;;11.30;99.90;;;;;;1885853;75;21051;-78
2022/03/12 09:19:08;;;;;;;2.83;2.25;;;11.30;99.90;;;;;;1921590;74;21054;-77
2022/03/12 09:22:02;;;;;;;4.75;2.40;;;11.30;99.90;;;;;;1917436;75;21583;-77
2022/03/12 09:24:54;;;;;;;4.50;2.20;;;11.30;99.90;;;;;;1881056;76;21078;-77
2022/03/12 09:27:45;;;;;;;3.87;2.37;;;11.40;99.90;;;;;;1926637;74;21270;-77
2022/03/12 09:30:39;;;;;;;3.00;2.50;;;11.50;99.90;;;;;;1937177;73;21177;-77
2022/03/12 09:33:31;;;;;;;2.52;2.00;;;11.50;99.90;;;;;;1947089;73;21055;-78
2022/03/12 09:36:24;;;;;;;3.12;2.30;;;11.60;99.90;;;;;;1926997;74;21062;-78
2022/03/12 09:39:15;;;;;;;3.40;2.35;;;11.70;99.90;;;;;;1926384;74;21206;-78
2022/03/12 09:42:10;;;;;;;7.50;2.45;;;11.80;99.90;;;;;;1949368;73;21063;-77
2022/03/12 09:45:03;;;;;;;3.10;2.47;;;11.80;99.90;;;;;;1926516;74;21510;-77
2022/03/12 09:47:55;;;;;;;4.10;2.72;;;11.80;99.90;;;;;;1926569;74;21599;-77
2022/03/12 09:50:46;;;;;;;4.30;2.55;;;11.80;99.90;;;;;;1861196;76;21173;-77
2022/03/12 09:53:38;;;;;;;4.30;2.60;;;12.00;99.90;;;;;;1924559;73;21171;-77
2022/03/12 09:56:30;;;;;;;4.83;2.60;;;12.30;99.90;;;;;;1925341;73;21102;-77
2022/03/12 09:59:22;;;;;;;3.87;2.45;;;12.40;99.90;;;;;;1916547;75;21172;-78
2022/03/12 10:02:40;;;;;;;6.00;3.08;;;12.40;99.90;;;;;;1931104;73;21102;-77
2022/03/12 10:05:51;;;;;;;4.60;3.25;;;12.60;99.90;;;;;;1930984;73;21079;-78
2022/03/12 10:08:46;;;;;;;7.00;3.72;;;12.80;99.90;;;;;;1916952;75;21106;-81
2022/03/12 10:11:41;;;;;;;4.80;3.27;;;13.00;99.90;;;;;;1927383;73;22092;-79
2022/03/12 10:14:34;;;;;;;4.40;3.42;;;12.90;99.90;;;;;;1950931;73;21118;-82
2022/03/12 10:17:26;;;;;;;6.78;4.15;;;13.00;99.90;;;;;;1927467;73;21113;-82
2022/03/12 10:20:21;;;;;;;5.28;3.83;;;13.10;99.90;;;;;;1916910;75;21058;-83
2022/03/12 10:23:12;;;;;;;11.95;4.67;;;13.10;99.90;;;;;;1928833;73;21171;-82
2022/03/12 10:26:06;;;;;;;8.93;4.60;;;13.20;99.90;;;;;;1920632;73;21207;-82
2022/03/12 10:28:57;;;;;;;7.12;4.37;;;13.30;99.90;;;;;;1916991;75;21137;-83
2022/03/12 10:31:49;;;;;;;8.00;4.85;;;13.50;99.90;;;;;;1922903;73;21116;-82
2022/03/12 10:34:42;;;;;;;7.95;4.70;;;13.50;99.90;;;;;;1916742;75;21140;-82
2022/03/12 10:37:34;;;;;;;4.72;4.03;;;13.70;99.90;;;;;;1916825;73;21122;-80
2022/03/12 10:40:27;;;;;;;6.58;3.30;;;13.70;99.90;;;;;;1916781;75;21067;-81
2022/03/12 10:43:18;;;;;;;6.05;3.50;;;13.80;99.90;;;;;;1916977;75;21109;-82
2022/03/12 10:46:10;;;;;;;4.90;3.90;;;13.60;99.90;;;;;;1916654;75;21616;-81
2022/03/12 10:49:03;;;;;;;12.98;5.28;;;13.70;99.90;;;;;;1938082;73;21080;-81
2022/03/12 10:51:57;;;;;;;4.72;3.67;;;13.60;99.90;;;;;;1916572;75;21584;-82
2022/03/12 10:54:49;;;;;;;4.87;3.75;;;13.70;99.90;;;;;;1916814;75;21128;-81
2022/03/12 10:57:43;;;;;;;7.40;3.77;;;13.60;99.90;;;;;;1916288;75;21099;-81
2022/03/12 11:00:39;;;;;;;7.72;3.98;;;13.60;99.90;;;;;;1916708;75;21113;-81
2022/03/12 11:03:32;;;;;;;6.75;3.33;;;13.70;99.90;;;;;;1916614;75;21087;-81
2022/03/12 11:06:24;;;;;;;5.55;3.42;;;13.80;99.90;;;;;;1916753;75;21130;-81
2022/03/12 11:09:21;;;;;;;9.08;3.55;;;13.80;99.90;;;;;;1916819;75;21136;-81
2022/03/12 11:12:29;;;;;;;6.92;4.40;;;13.90;99.90;;;;;;1917039;75;21052;-83
2022/03/12 11:15:20;;;;;;;7.22;3.98;;;14.10;99.90;;;;;;1916878;75;21113;-83
2022/03/12 11:18:21;;;;;;;6.97;4.40;;;14.30;99.90;;;;;;1916700;75;21113;-81
2022/03/12 11:21:13;;;;;;;6.50;4.65;;;14.10;99.90;;;;;;1940083;73;21127;-83
2022/03/12 11:24:08;;;;;;;8.60;3.98;;;13.90;99.90;;;;;;1916755;75;21058;-82
2022/03/12 11:27:01;;;;;;;6.53;4.05;;;13.70;99.90;;;;;;1916770;75;21089;-81
2022/03/12 11:29:59;;;;;;;7.03;3.90;;;13.80;99.90;;;;;;1916593;75;21142;-81
2022/03/12 11:33:05;;;;;;;7.90;4.10;;;13.80;99.90;;;;;;1950671;73;21080;-81
2022/03/12 11:36:02;;;;;;;6.72;4.15;;;13.70;99.90;;;;;;1929564;73;21055;-81
2022/03/12 11:38:55;;;;;;;5.78;3.87;;;13.70;99.90;;;;;;1927914;73;21101;-81
2022/03/12 11:42:01;;;;;;;6.65;3.98;;;13.80;99.90;;;;;;1928161;73;21111;-82
2022/03/12 11:44:54;;;;;;;9.28;4.12;;;13.70;99.90;;;;;;1929454;73;21141;-82
2022/03/12 11:47:47;;;;;;;6.20;4.17;;;13.70;99.90;;;;;;1916724;75;21165;-82
2022/03/12 11:50:39;;;;;;;6.42;4.33;;;13.70;99.90;;;;;;1916927;75;21048;-82
2022/03/12 11:53:36;;;;;;;7.28;3.98;;;13.70;99.90;;;;;;1923318;73;21195;-82
2022/03/12 11:56:29;;;;;;;7.03;4.35;;;13.70;99.90;;;;;;1916664;75;21122;-82
2022/03/12 11:59:21;;;;;;;6.00;3.83;;;13.70;99.90;;;;;;1937123;73;21575;-82
2022/03/12 12:02:26;;;;;;;8.43;4.00;;;13.80;99.90;;;;;;1932155;73;21101;-82
2022/03/12 12:05:20;;;;;;;13.85;4.97;;;13.80;99.90;;;;;;1919907;73;21098;-82
2022/03/12 12:08:13;;;;;;;6.80;4.10;;;13.80;99.90;;;;;;1939485;73;21063;-81
2022/03/12 12:11:05;;;;;;;8.40;4.80;;;13.80;99.90;;;;;;1916918;75;21039;-81
2022/03/12 12:13:58;;;;;;;8.25;4.80;;;13.70;99.90;;;;;;1940839;73;21115;-82
2022/03/12 12:16:49;;;;;;;7.78;3.95;;;13.70;99.90;;;;;;1879766;76;21535;-82
2022/03/12 12:19:41;;;;;;;5.97;4.15;;;13.60;99.90;;;;;;1917417;74;21562;-81
2022/03/12 12:22:33;;;;;;;9.15;4.55;;;13.50;99.90;;;;;;1916609;75;21125;-81
2022/03/12 12:25:26;;;;;;;6.70;4.40;;;13.40;99.90;;;;;;1916551;75;21105;-81
2022/03/12 12:28:20;;;;;;;8.83;4.12;;;13.60;99.90;;;;;;1933411;73;21111;-81
2022/03/12 12:31:22;;;;;;;9.03;4.33;;;13.40;99.90;;;;;;1917715;74;21099;-81
2022/03/12 12:34:14;;;;;;;5.40;3.98;;;13.40;99.90;;;;;;1927693;74;21135;-81
2022/03/12 12:37:08;;;;;;;6.05;4.20;;;13.50;99.90;;;;;;1904808;74;21131;-81
2022/03/12 12:40:16;;;;;;;5.75;3.92;;;13.60;99.90;;;;;;1916716;75;21294;-81
2022/03/12 12:43:12;;;;;;;5.87;4.10;;;13.60;99.90;;;;;;1904438;75;21122;-81
2022/03/12 12:48:54;;;;;;;5.22;3.85;;;13.60;99.90;;;;;;1944383;72;22179;-81
2022/03/12 12:52:04;;;;;;;4.78;3.52;;;13.80;99.90;;;;;;1895515;75;21064;-84
2022/03/12 12:55:01;;;;;;;7.55;4.25;;;13.80;99.90;;;;;;1895419;75;21104;-81
2022/03/12 12:57:53;;;;;;;7.85;3.92;;;13.70;99.90;;;;;;1895513;75;21054;-81
2022/03/12 13:00:46;;;;;;;7.58;4.10;;;13.80;99.90;;;;;;1900118;75;21055;-81
2022/03/12 13:03:47;;;;;;;6.50;3.83;;;13.80;99.90;;;;;;1906250;75;21058;-81
2022/03/12 13:06:46;;;;;;;6.20;3.70;;;13.70;99.90;;;;;;1877337;75;21179;-81
2022/03/12 13:10:01;;;;;;;7.67;3.70;;;13.50;99.90;;;;;;1890564;75;21049;-81
2022/03/12 13:12:56;;;;;;;6.17;3.98;;;13.70;99.90;;;;;;1890414;75;21102;-81
2022/03/12 13:15:55;;;;;;;5.95;3.85;;;13.70;99.90;;;;;;1894151;75;21067;-83
2022/03/12 13:18:47;;;;;;;6.15;4.10;;;13.80;99.90;;;;;;1903718;75;21051;-81
2022/03/12 13:21:39;;;;;;;5.72;3.62;;;13.90;99.90;;;;;;1885682;75;21103;-82
2022/03/12 13:24:32;;;;;;;4.80;3.62;;;13.80;99.90;;;;;;1907056;75;21051;-82
2022/03/12 13:27:26;;;;;;;4.70;3.52;;;13.80;99.90;;;;;;1906495;75;21121;-82
2022/03/12 13:30:20;;;;;;;6.12;3.70;;;13.90;99.90;;;;;;1906550;75;21039;-82
2022/03/12 13:33:12;;;;;;;6.10;3.58;;;13.90;99.90;;;;;;1902478;75;21120;-81
2022/03/12 13:36:05;;;;;;;3.62;3.02;;;13.80;99.90;;;;;;1897081;75;21160;-82
2022/03/12 13:38:57;;;;;;;5.35;3.50;;;13.70;99.90;;;;;;1902989;75;21173;-81
2022/03/12 13:41:50;;;;;;;5.15;3.98;;;13.80;99.90;;;;;;1884102;75;21168;-81
2022/03/12 13:44:46;;;;;;;5.22;3.90;;;13.90;99.90;;;;;;1892717;75;21075;-83
2022/03/12 13:47:38;;;;;;;4.95;3.27;;;13.90;99.90;;;;;;1918386;74;21128;-82
2022/03/12 13:50:30;;;;;;;4.78;3.40;;;14.00;99.90;;;;;;1904526;74;21087;-82
2022/03/12 13:53:23;;;;;;;5.80;3.72;;;14.10;99.90;;;;;;1922304;73;21154;-82
2022/03/12 13:56:18;;;;;;;4.67;3.40;;;14.20;99.90;;;;;;1914610;74;21501;-82
2022/03/12 13:59:12;;;;;;;5.47;3.70;;;14.20;99.90;;;;;;1926427;74;21138;-82
2022/03/12 14:02:06;;;;;;;3.72;2.92;;;14.30;99.90;;;;;;1904990;74;21584;-84
2022/03/12 14:04:59;;;;;;;6.90;3.62;;;14.30;99.90;;;;;;1903995;74;21457;-82
2022/03/12 14:07:51;;;;;;;4.42;3.08;;;14.30;99.90;;;;;;1915199;74;21155;-82
2022/03/12 14:10:45;;;;;;;3.37;2.80;;;14.40;99.90;;;;;;1895115;74;21066;-82
2022/03/12 14:13:41;;;;;;;6.95;3.12;;;14.50;99.90;;;;;;1913454;74;21123;-82
2022/03/12 14:16:36;;;;;;;4.42;3.12;;;14.40;99.90;;;;;;1915779;74;21066;-82
2022/03/12 14:19:28;;;;;;;5.00;3.20;;;14.40;99.90;;;;;;1919724;74;21925;-82
2022/03/12 14:22:21;;;;;;;3.95;2.85;;;14.50;99.90;;;;;;1904922;74;21058;-81
2022/03/12 14:25:13;;;;;;;3.98;3.35;;;14.40;99.90;;;;;;1909616;74;21043;-82
2022/03/12 14:28:05;;;;;;;3.70;2.98;;;14.40;99.90;;;;;;1904499;74;21086;-82
2022/03/12 14:30:56;;;;;;;5.55;3.37;;;14.50;99.90;;;;;;1903675;74;21168;-82
2022/03/12 14:33:49;;;;;;;4.67;3.52;;;14.60;99.90;;;;;;1904013;74;21056;-82
2022/03/12 14:36:43;;;;;;;4.17;3.08;;;14.70;99.90;;;;;;1905986;74;21101;-82
2022/03/12 14:39:35;;;;;;;4.92;3.50;;;15.00;99.90;;;;;;1908767;74;21172;-82
2022/03/12 14:42:26;;;;;;;5.03;3.30;;;15.00;99.90;;;;;;1904586;74;21058;-79
2022/03/12 14:45:19;;;;;;;6.42;3.20;;;15.00;99.90;;;;;;1920956;74;21105;-79
2022/03/12 14:48:15;;;;;;;5.08;3.50;;;14.90;99.90;;;;;;1915378;74;21105;-79
2022/03/12 14:53:57;;;;;;;3.55;2.95;;;15.00;99.90;;;;;;1941659;72;22247;-80
2022/03/12 14:57:11;;;;;;;5.45;3.15;;;15.20;99.90;;;;;;1902225;74;21146;-79
2022/03/12 15:00:05;;;;;;;5.15;3.75;;;15.10;99.90;;;;;;1923807;74;21050;-79
2022/03/12 15:03:08;;;;;;;7.92;3.37;;;15.00;99.90;;;;;;1902010;75;21604;-79
2022/03/12 15:06:01;;;;;;;5.12;3.33;;;14.90;99.90;;;;;;1895721;75;21123;-79
2022/03/12 15:08:54;;;;;;;4.83;3.50;;;14.70;99.90;;;;;;1910632;74;21530;-79
2022/03/12 15:11:47;;;;;;;5.80;3.33;;;14.80;99.90;;;;;;1896653;75;21631;-79
2022/03/12 15:14:39;;;;;;;4.85;3.40;;;14.60;99.90;;;;;;1916883;75;21124;-80
2022/03/12 15:17:32;;;;;;;5.53;3.52;;;14.60;99.90;;;;;;1896611;74;21067;-79
2022/03/12 15:23:08;;;;;;;5.03;3.47;;;14.70;99.90;;;;;;1958180;72;22166;-78
2022/03/12 15:26:22;;;;;;;7.08;3.42;;;14.70;99.90;;;;;;1896202;75;21083;-79